Date,TemperatureHighF,TemperatureAvgF,TemperatureLowF,DewpointHighF,DewpointAvgF,DewpointLowF,HumidityHigh,HumidityAvg,HumidityLow,PressureMaxIn,PressureMinIn,WindSpeedMaxMPH,WindSpeedAvgMPH,GustSpeedMaxMPH,PrecipitationSumIn
2013-1-1,31.4,24.8,16.2,26.8,19.4,12.4,92,80,63,30.18,30.07,14,1,14,0.01
2013-1-2,22.9,15.8,9.7,18.0,11.9,6.0,91,84,75,30.27,30.15,11,2,0,0.00
2013-1-3,27.5,21.0,10.7,24.4,16.4,5.0,88,82,76,30.27,30.17,18,5,18,0.00
2013-1-4,27.0,22.6,15.9,22.1,18.0,11.8,90,83,73,30.28,30.18,23,8,23,0.00
2013-1-5,33.0,26.2,16.4,29.9,23.1,14.4,100,88,75,30.32,30.08,18,3,18,0.01
2013-1-6,34.4,30.9,26.6,31.7,28.1,23.8,96,89,80,30.33,29.96,22,5,22,0.00
2013-1-7,33.3,28.0,20.4,27.1,24.1,18.9,94,85,76,30.44,30.20,22,4,22,0.00
2013-1-8,37.4,29.7,22.4,29.4,25.2,20.4,92,84,72,30.30,30.20,11,2,12,0.01
2013-1-9,46.0,38.7,29.8,35.1,31.3,24.6,88,75,60,30.51,30.11,24,5,24,0.00
2013-1-10,38.2,32.0,23.1,33.8,28.3,21.0,95,86,76,30.57,30.13,22,6,22,0.08
2013-1-11,56.8,46.6,35.0,53.1,44.6,33.6,100,93,82,30.14,29.78,27,7,27,0.21
2013-1-12,60.0,51.7,47.7,53.1,48.8,45.4,98,90,75,29.95,29.77,18,3,18,0.22
2013-1-13,47.9,35.6,24.8,47.4,35.0,23.1,98,97,93,30.13,29.75,18,4,18,0.45
2013-1-14,24.9,21.3,16.4,23.2,18.3,14.2,93,88,81,30.49,30.13,20,2,20,0.00
2013-1-15,29.4,21.2,12.6,23.4,17.9,11.0,95,87,74,30.48,30.17,11,1,0,0.00
2013-1-16,36.5,27.7,19.7,28.1,22.0,18.0,94,80,54,30.17,29.91,21,5,21,0.00
2013-1-17,40.6,30.4,18.3,31.2,23.8,13.3,93,77,56,30.37,30.04,23,4,23,0.01
2013-1-18,35.9,27.7,19.7,25.9,20.0,14.5,81,73,61,30.47,30.06,26,6,26,0.00
2013-1-19,47.7,41.3,34.4,36.6,32.0,25.6,78,70,61,30.06,29.72,31,10,31,0.00
2013-1-20,41.2,22.3,17.1,34.5,14.4,9.2,82,71,57,30.25,29.72,35,6,35,0.00
2013-1-21,17.5,13.3,6.5,12.7,5.5,0.9,87,71,54,30.22,30.07,29,8,29,0.00
2013-1-22,11.6,5.6,0.5,5.2,0.7,-2.7,88,80,68,30.38,30.21,19,4,19,0.00
2013-1-23,16.7,11.6,5.4,14.8,5.4,-0.8,92,76,60,30.37,30.12,26,4,26,0.00
2013-1-24,23.4,13.1,3.5,13.6,6.1,0.5,89,74,53,30.67,30.19,20,3,20,0.00
2013-1-25,22.0,18.5,15.1,19.7,14.2,6.8,92,83,69,30.52,30.05,16,5,14,0.00
2013-1-26,32.3,23.2,17.0,23.0,18.5,13.6,100,83,59,30.48,30.10,15,2,15,0.00
2013-1-27,31.2,23.7,15.8,29.8,19.9,12.5,95,85,76,30.49,30.13,24,7,24,0.00
2013-1-28,49.0,42.5,31.2,49.0,42.2,29.9,100,99,95,30.14,29.92,21,5,21,0.07
2013-1-29,56.4,50.5,40.7,56.1,50.4,40.7,100,100,98,29.99,29.64,24,6,24,0.48
2013-1-30,51.6,43.4,28.5,49.9,42.1,25.3,100,95,85,29.41,29.16,30,9,30,0.34
2013-1-31,28.4,18.9,11.3,25.6,14.2,7.4,92,81,69,30.02,29.40,29,11,29,0.00
2013-2-1,14.1,9.3,4.8,8.2,4.1,0.5,92,79,70,30.36,30.02,23,8,23,0.00
2013-2-2,23.2,17.1,11.4,21.2,14.7,7.0,94,90,82,30.30,30.00,16,4,16,0.00
2013-2-3,19.7,15.3,10.3,16.8,12.5,7.7,92,88,82,30.09,29.96,18,3,18,0.00
2013-2-4,22.6,19.3,15.5,21.4,17.7,12.9,95,93,84,30.10,29.89,10,2,0,0.00
2013-2-5,28.0,21.1,8.9,26.8,19.5,6.8,96,93,80,30.04,29.86,14,2,14,0.01
2013-2-6,31.0,25.5,20.1,26.5,20.1,16.1,95,80,66,30.31,30.03,15,3,15,0.01
2013-2-7,37.9,29.5,22.8,30.9,25.0,18.6,96,83,74,30.27,29.81,17,7,12,0.07
2013-2-8,34.8,29.1,19.9,31.1,25.8,17.5,98,88,68,30.38,29.80,24,6,24,0.02
2013-2-9,29.4,21.9,12.6,22.8,18.0,10.7,94,85,74,30.48,30.27,15,4,14,0.00
2013-2-10,45.6,32.4,23.4,45.1,29.0,20.8,99,87,78,30.27,29.68,21,8,21,0.06
2013-2-11,47.2,36.2,29.7,46.3,30.8,23.5,98,80,73,29.97,29.59,39,12,39,0.00
2013-2-12,36.9,29.9,27.1,27.2,24.3,22.7,85,79,67,30.12,29.96,22,4,22,0.00
2013-2-13,45.2,32.1,24.2,31.2,26.0,21.3,92,79,57,29.97,29.76,14,2,14,0.00
2013-2-14,40.2,34.9,31.6,35.4,30.9,24.4,94,85,72,29.94,29.72,32,7,32,0.00
2013-2-15,34.4,27.7,20.1,24.9,21.4,16.1,89,77,57,30.18,29.93,17,3,17,0.00
2013-2-16,24.4,18.9,9.7,20.1,14.6,6.0,92,83,66,30.15,30.06,20,2,20,0.00
2013-2-17,30.7,18.9,7.5,16.6,11.7,4.8,92,74,51,30.27,30.14,11,1,0,0.01
2013-2-18,51.5,35.2,20.6,42.3,27.8,14.0,92,75,63,30.22,29.57,29,10,29,0.11
2013-2-19,44.0,22.9,14.0,41.8,19.5,9.7,95,86,77,30.07,29.47,33,12,33,0.06
2013-2-20,23.6,18.5,14.1,19.5,14.7,11.1,92,85,75,30.34,30.07,21,6,21,0.00
2013-2-21,25.7,21.9,19.4,20.3,17.2,15.1,92,82,78,30.42,30.20,25,7,25,0.00
2013-2-22,32.8,26.5,19.7,32.6,25.2,15.7,99,95,84,30.20,29.90,30,9,30,0.00
2013-2-23,30.7,26.9,23.9,27.5,21.8,18.9,88,81,73,29.99,29.92,18,6,18,0.00
2013-2-24,39.0,28.2,22.5,28.0,22.8,19.4,90,80,63,30.20,29.96,16,3,16,0.01
2013-2-25,40.0,29.6,18.1,30.3,24.6,16.7,97,82,66,30.25,30.06,16,3,16,0.00
2013-2-26,32.6,31.1,28.8,32.1,28.4,24.3,98,90,78,30.08,29.47,24,4,24,0.01
2013-2-27,33.3,32.1,30.4,32.8,31.6,29.9,99,98,97,29.62,29.46,15,2,15,0.24
2013-2-28,37.6,33.2,30.6,34.7,31.9,30.1,99,95,86,29.98,29.60,17,5,17,0.05
2013-3-1,34.4,28.8,24.2,30.6,24.4,19.5,97,84,70,30.15,29.97,14,2,14,0.01
2013-3-2,34.3,26.2,23.0,22.7,19.8,18.3,86,77,61,30.14,30.09,19,4,19,0.00
2013-3-3,36.7,26.0,17.9,21.8,18.1,14.0,86,73,52,30.12,30.05,23,3,23,0.00
2013-3-4,34.4,25.2,12.7,23.4,18.1,10.7,95,76,54,30.19,30.09,11,1,0,0.00
2013-3-5,31.2,28.4,26.8,27.7,24.7,20.4,97,86,71,30.13,29.77,22,8,22,0.00
2013-3-6,33.5,29.3,24.8,31.0,26.7,23.0,97,90,84,30.26,29.83,17,4,17,0.20
2013-3-7,42.1,33.4,29.2,31.5,28.0,23.6,95,81,57,30.43,30.25,14,2,13,0.04
2013-3-8,42.9,30.8,17.7,28.8,22.9,15.8,95,74,49,30.53,30.42,10,1,0,0.00
2013-3-9,40.9,35.0,26.8,36.0,29.9,22.9,92,82,73,30.43,30.01,21,6,21,0.00
2013-3-10,58.5,48.9,39.9,46.5,40.5,34.6,84,73,62,30.02,29.76,24,7,24,0.02
2013-3-11,54.9,45.6,33.9,48.9,42.3,31.8,99,89,62,29.77,29.51,27,7,27,0.24
2013-3-12,33.9,31.5,28.7,32.0,28.0,25.2,95,87,73,29.97,29.75,22,8,22,0.00
2013-3-13,31.8,26.6,20.6,26.9,22.5,15.9,94,84,69,30.31,29.95,21,4,21,0.05
2013-3-14,41.4,29.7,19.7,27.2,20.6,14.5,85,70,45,30.34,30.15,14,2,14,0.00
2013-3-15,46.4,37.3,30.1,39.1,33.3,25.0,97,86,70,30.15,29.80,17,3,17,0.03
2013-3-16,39.8,32.8,30.4,39.3,31.1,25.5,99,93,82,30.09,29.69,18,4,18,0.01
2013-3-17,34.7,29.1,25.9,26.5,22.2,19.3,86,76,60,30.26,30.08,26,7,26,0.00
2013-3-18,34.2,30.1,25.9,33.8,28.5,21.2,100,94,82,30.14,29.59,29,10,29,0.02
2013-3-19,33.4,26.0,19.9,27.4,18.0,14.0,87,72,52,30.04,29.73,31,11,31,0.00
2013-3-20,28.8,23.8,16.6,19.6,15.0,9.5,84,69,52,30.04,29.98,23,5,23,0.00
2013-3-21,31.9,22.7,15.3,24.9,17.7,12.4,92,82,66,30.04,29.96,19,3,19,0.00
2013-3-22,43.9,30.6,19.5,26.0,20.8,16.5,89,69,45,30.07,30.01,18,2,18,0.00
2013-3-24,35.1,31.9,28.2,26.9,25.1,21.4,88,76,65,29.94,29.60,27,9,27,0.00
2013-3-25,38.7,32.0,27.2,31.5,27.9,25.3,95,85,70,29.97,29.56,29,7,29,0.08
2013-3-26,43.4,34.7,30.2,33.6,29.8,27.1,92,82,64,30.20,29.97,18,2,18,0.00
2013-3-27,47.9,36.8,28.9,33.6,27.9,21.9,95,72,45,30.29,30.19,20,2,20,0.00
2013-3-28,54.9,38.8,26.4,31.0,25.9,20.9,83,62,38,30.34,30.26,16,2,16,0.00
2013-3-29,57.2,39.9,23.1,30.7,25.0,20.3,91,59,33,30.33,30.22,14,1,14,0.00
2013-3-30,53.9,40.5,22.9,34.8,27.7,19.4,91,62,41,30.25,29.94,18,2,18,0.00
2013-3-31,61.1,47.2,36.9,46.1,19.3,-99.9,97,70,42,29.94,29.65,25,3,25,0.00
2013-4-1,44.2,34.0,23.9,30.6,20.7,15.0,89,60,37,30.14,29.76,23,5,23,0.00
2013-4-2,46.8,31.3,19.4,23.1,17.4,11.9,88,59,32,30.30,30.14,25,3,25,0.00
2013-4-3,52.5,38.8,22.4,20.5,15.9,13.4,74,42,24,30.45,30.30,20,3,20,0.00
2013-4-4,57.9,40.2,26.7,26.0,20.7,13.6,67,47,28,30.36,29.97,13,3,13,0.00
2013-4-5,58.4,44.6,34.1,32.9,25.3,18.8,78,49,24,30.18,29.95,26,3,26,0.00
2013-4-6,58.9,45.4,32.7,38.8,29.4,23.5,75,55,39,30.20,29.75,34,12,34,0.00
2013-4-7,63.9,54.5,41.6,47.0,42.1,34.4,84,64,45,29.98,29.65,36,6,36,0.00
2013-4-8,71.4,50.8,39.6,58.7,44.1,34.1,98,79,56,29.98,29.71,34,7,34,0.19
2013-4-9,75.8,63.9,44.8,61.9,54.7,41.9,90,73,58,30.03,29.82,24,7,24,0.00
2013-4-10,63.0,47.7,42.1,55.3,46.4,41.8,99,95,76,29.92,29.80,23,4,23,0.60
2013-4-11,42.2,39.5,37.1,41.9,39.2,37.1,100,99,97,29.93,29.59,30,12,30,1.10
2013-4-12,41.5,38.5,37.0,38.6,36.1,31.5,100,91,78,29.83,29.56,23,7,23,0.16
2013-4-13,40.6,37.7,34.4,34.4,32.2,29.8,95,81,67,30.00,29.83,24,6,24,0.00
2013-4-14,54.9,43.5,35.0,46.3,37.9,31.5,91,81,71,30.09,29.86,24,6,24,0.00
2013-4-15,66.5,54.7,40.0,58.2,49.6,37.7,94,83,72,29.93,29.84,24,5,24,0.00
2013-4-16,60.3,51.5,44.3,55.6,45.6,38.3,98,81,54,30.21,29.85,20,3,20,0.26
2013-4-17,54.7,48.4,43.0,44.7,40.4,36.3,96,74,66,30.27,29.96,25,8,25,0.43
2013-4-18,73.8,56.6,43.3,66.9,55.1,42.0,100,95,76,29.96,29.53,38,9,38,1.19
2013-4-19,59.0,40.3,34.6,59.0,36.9,30.2,100,88,76,29.83,29.42,32,12,32,0.77
2013-4-20,46.4,36.2,28.0,31.2,26.4,19.1,94,69,45,30.45,29.82,26,4,26,0.01
2013-4-21,48.6,36.8,23.1,34.6,27.8,19.3,93,71,52,30.60,30.44,25,6,25,0.00
2013-4-22,61.4,47.1,31.7,39.8,34.1,28.8,91,64,38,30.44,30.14,31,5,31,0.00
2013-4-23,67.3,51.8,42.0,54.9,44.7,37.1,99,78,52,30.15,29.78,21,4,21,0.96
2013-4-24,46.1,39.6,34.9,45.6,35.9,26.4,99,88,60,30.17,29.74,24,5,24,0.29
2013-4-25,55.6,42.1,34.4,41.6,33.9,28.0,91,74,50,30.37,30.14,24,4,24,0.02
2013-4-26,59.0,45.6,29.4,41.1,34.9,27.8,96,69,47,30.45,30.33,18,2,18,0.00
2013-4-27,66.7,54.5,37.2,44.6,39.6,35.1,94,60,37,30.35,30.05,22,4,22,0.00
2013-4-28,58.4,53.5,47.9,57.9,51.1,43.7,100,92,66,30.05,29.80,13,3,0,0.45
2013-4-29,68.3,59.2,52.3,58.9,54.9,52.3,100,87,64,29.93,29.84,17,0,17,0.01
2013-4-30,74.8,63.5,52.4,63.9,56.9,50.7,95,80,67,30.01,29.90,45,5,45,0.00
2013-5-1,80.5,69.4,52.2,61.3,57.4,49.8,95,68,48,30.16,30.00,39,5,39,0.00
2013-5-2,78.0,67.3,56.8,59.9,56.7,53.8,91,70,50,30.17,30.06,63,9,63,0.00
2013-5-3,75.5,67.3,57.8,62.0,54.4,46.0,88,65,40,30.07,29.94,56,10,56,0.00
2013-5-4,69.7,62.2,55.4,50.3,46.3,42.1,73,57,39,30.02,29.96,46,10,46,0.00
2013-5-5,71.3,61.1,52.0,50.5,46.2,42.1,78,59,41,30.02,29.95,22,6,22,0.00
2013-5-6,75.5,63.7,53.1,52.0,47.6,42.8,71,57,40,30.01,29.92,28,3,28,0.00
2013-5-7,74.7,63.5,49.3,57.3,50.9,44.3,84,65,50,30.01,29.94,19,3,19,0.00
2013-5-8,85.8,66.9,50.7,56.5,52.9,48.8,97,65,33,29.99,29.91,21,1,21,0.00
2013-5-9,84.1,67.1,53.0,58.2,53.6,46.3,93,66,28,29.95,29.86,13,1,13,0.01
2013-5-10,70.5,60.3,45.8,61.2,56.3,43.1,98,87,69,29.87,29.73,27,5,27,0.08
2013-5-11,54.7,46.6,38.9,49.7,42.5,33.9,94,86,66,29.97,29.79,25,3,25,0.01
2013-5-12,49.8,41.9,34.6,34.3,32.1,28.4,90,69,50,30.13,29.95,22,3,22,0.01
2013-5-13,61.2,46.2,31.9,34.9,30.2,26.8,94,58,31,30.19,30.09,16,1,16,0.00
2013-5-14,83.5,63.8,45.5,60.3,46.0,29.8,67,53,38,30.10,29.69,36,3,36,0.00
2013-5-15,85.2,75.4,63.8,62.8,57.1,51.1,80,55,33,29.76,29.61,26,4,26,0.01
2013-5-16,87.5,69.8,49.5,53.1,49.3,45.6,92,53,27,29.94,29.76,10,0,0,0.00
2013-5-17,81.8,66.0,53.2,54.7,47.3,40.6,65,52,37,30.08,29.93,21,6,21,0.00
2013-5-18,79.7,66.8,54.6,61.0,52.3,41.9,76,60,50,30.09,29.96,22,4,22,0.00
2013-5-19,84.7,71.4,55.5,66.0,58.5,48.8,82,65,50,29.99,29.81,16,3,16,0.00
2013-5-20,86.9,76.4,66.1,71.5,67.3,63.3,93,75,55,29.87,29.76,14,1,14,0.00
2013-5-21,84.8,75.3,65.8,68.3,64.3,61.9,90,70,49,29.79,29.67,0,0,0,0.01
2013-5-22,77.2,69.0,63.2,64.8,63.2,60.9,97,83,59,29.72,29.61,0,0,0,0.14
2013-5-23,63.6,56.7,47.5,62.1,54.1,43.7,96,91,83,30.15,29.69,0,0,0,0.04
2013-5-24,67.2,52.5,37.6,43.7,40.4,35.3,94,66,39,30.35,30.15,0,0,0,0.00
2013-5-25,70.8,56.2,39.9,47.9,41.5,38.3,99,62,32,30.37,30.23,0,0,0,0.00
2013-5-26,67.9,58.6,44.1,45.0,40.3,35.2,87,53,34,30.32,30.18,0,0,0,0.00
2013-5-27,60.3,54.0,49.3,54.0,47.2,34.8,100,81,39,30.20,29.93,0,0,0,0.20
2013-5-28,78.2,68.8,54.6,70.7,65.1,54.0,100,89,75,29.93,29.79,0,0,0,0.24
2013-5-29,83.6,74.2,64.1,70.7,65.7,61.9,95,76,59,29.96,29.82,16,2,16,0.07
2013-5-30,84.2,75.2,66.8,72.5,67.0,62.3,89,76,60,30.01,29.89,28,2,28,0.01
2013-5-31,74.3,71.9,64.6,69.1,67.4,63.1,96,86,78,29.94,29.82,18,2,18,0.07
2013-6-1,73.5,67.8,63.0,66.9,64.4,62.1,100,89,76,29.87,29.68,20,3,20,1.85
2013-6-2,70.5,62.9,48.2,64.7,57.0,44.8,94,81,69,29.98,29.67,16,2,16,0.00
2013-6-3,72.0,58.1,45.3,48.0,44.6,40.4,91,64,37,30.08,29.97,13,1,13,0.00
2013-6-4,74.6,61.1,46.2,52.6,48.9,44.0,93,67,44,30.17,30.08,12,2,12,0.00
2013-6-5,75.5,64.5,54.6,57.1,50.5,44.1,82,61,46,30.12,29.92,14,4,14,0.00
2013-6-6,78.0,64.2,56.0,58.2,52.0,45.8,78,65,48,29.93,29.78,13,2,14,0.00
2013-6-7,74.8,62.7,52.8,57.9,53.7,50.6,95,74,53,29.89,29.83,13,1,13,0.00
2013-6-8,76.2,63.0,48.4,58.7,53.3,47.6,100,74,49,30.01,29.88,13,0,13,0.00
2013-6-9,85.0,70.0,59.0,67.6,60.5,55.3,94,73,48,30.04,29.85,20,3,20,0.03
2013-6-10,76.7,67.9,64.7,68.6,65.7,64.1,100,93,73,29.85,29.71,19,2,19,0.40
2013-6-11,84.5,72.3,61.4,70.5,65.3,60.8,98,80,58,29.91,29.78,13,1,13,0.00
2013-6-12,84.8,74.4,65.5,76.2,69.9,64.2,98,86,70,29.86,29.60,16,1,16,0.33
2013-6-13,83.3,69.9,59.4,66.2,60.7,55.1,100,76,43,29.92,29.48,23,2,23,0.24
2013-6-14,81.5,68.5,55.5,61.7,57.7,54.8,99,71,45,30.05,29.92,11,1,0,0.00
2013-6-15,76.3,65.7,57.3,67.4,61.3,56.1,97,86,62,30.07,29.90,13,1,13,0.06
2013-6-16,82.5,72.2,64.1,69.9,66.3,61.8,99,83,64,29.90,29.83,13,1,13,0.15
2013-6-17,90.1,76.3,66.5,71.8,64.7,59.1,99,71,41,29.90,29.82,10,0,0,0.00
2013-6-18,80.0,68.7,60.6,63.7,60.1,49.6,96,75,55,30.02,29.81,13,1,13,0.00
2013-6-19,78.0,64.5,49.7,56.2,50.9,44.1,82,63,43,30.14,30.01,13,1,13,0.00
2013-6-20,86.3,70.7,52.6,66.1,58.3,50.1,94,67,41,30.18,30.10,9,1,0,0.00
2013-6-21,85.7,76.4,63.4,65.8,62.7,59.6,89,64,46,30.16,29.99,17,1,17,0.00
2013-6-22,88.3,76.3,68.6,77.0,69.5,63.1,97,80,67,30.06,29.94,16,0,16,0.30
2013-6-23,87.7,76.2,65.9,73.3,68.5,65.0,98,79,56,30.05,29.94,15,1,15,0.00
2013-6-24,90.5,76.2,66.3,73.4,69.1,64.7,98,80,54,30.05,29.88,20,1,20,0.15
2013-6-25,87.7,74.7,65.1,76.5,69.5,64.3,98,85,58,29.97,29.78,24,1,24,1.32
2013-6-26,81.8,70.6,65.1,76.0,68.6,64.5,100,94,75,29.87,29.69,18,1,18,0.32
2013-6-27,87.4,75.3,66.7,75.0,70.6,66.7,100,87,62,29.75,29.62,13,1,13,0.00
2013-6-28,84.8,72.6,65.2,69.5,65.6,61.6,99,80,57,29.62,29.52,20,1,20,0.00
2013-6-29,82.3,67.8,60.4,68.3,63.8,59.6,100,88,57,29.68,29.52,15,0,15,0.22
2013-6-30,76.9,67.5,60.3,66.0,62.6,59.7,100,85,65,29.90,29.68,13,1,13,0.18
2013-7-1,74.4,65.3,59.0,63.4,58.1,51.6,94,78,65,30.01,29.89,17,1,17,0.11
2013-7-2,70.2,63.8,56.6,66.4,61.3,55.5,99,92,79,30.03,29.97,13,1,13,0.13
2013-7-3,80.6,71.0,63.9,69.2,65.9,63.6,100,85,64,30.07,29.99,19,2,19,0.00
2013-7-4,83.5,72.0,62.7,66.4,62.8,54.7,99,76,43,30.12,30.03,5,0,0,0.00
2013-7-5,84.9,73.9,66.3,74.5,68.6,63.2,100,84,63,30.08,30.01,5,0,0,0.03
2013-7-6,78.4,72.1,67.0,73.3,69.3,66.4,99,91,78,30.07,29.96,9,0,0,0.03
2013-7-7,81.0,71.1,66.3,73.0,68.5,64.7,100,92,76,30.03,29.95,15,1,15,0.33
2013-7-8,81.5,73.2,67.6,74.8,70.9,67.5,100,93,77,30.03,29.94,15,0,15,0.66
2013-7-9,88.3,75.7,71.5,79.1,74.2,71.2,100,95,73,29.98,29.86,14,0,14,0.11
2013-7-10,83.4,75.0,62.3,78.9,71.2,58.8,99,88,61,29.95,29.74,21,1,21,0.45
2013-7-11,86.3,70.3,56.4,62.9,59.8,55.6,99,73,42,30.05,29.93,11,0,0,0.00
2013-7-12,81.9,69.5,56.3,66.2,60.5,55.5,100,75,49,30.12,30.02,11,0,0,0.00
2013-7-13,83.5,71.9,58.0,69.7,64.8,57.4,99,80,60,30.16,30.09,15,2,15,0.00
2013-7-14,88.0,76.4,65.2,74.7,70.2,64.6,100,82,64,30.20,30.14,11,1,0,0.00
2013-7-15,91.5,80.7,70.3,77.2,73.9,69.4,100,81,62,30.25,30.18,11,0,0,0.00
2013-7-16,95.0,83.9,73.3,77.3,74.4,71.5,95,75,52,30.29,30.21,11,0,0,0.00
2013-7-17,94.7,83.0,72.8,78.4,74.7,70.6,94,77,56,30.27,30.13,13,0,13,0.00
2013-7-18,95.5,83.4,73.2,79.3,75.2,71.5,96,78,54,30.15,29.95,11,0,0,0.00
2013-7-19,92.1,83.5,74.9,78.1,75.6,73.3,95,78,60,29.95,29.74,22,1,22,0.00
2013-7-20,94.0,81.3,69.8,76.2,71.8,65.5,98,75,45,29.88,29.70,14,0,14,0.05
2013-7-21,85.8,74.9,64.2,70.7,67.1,62.8,96,78,55,29.95,29.85,10,1,0,0.00
2013-7-22,80.8,71.3,63.6,71.7,67.3,62.8,99,88,69,29.90,29.73,22,1,22,0.67
2013-7-23,85.5,72.5,59.9,71.6,66.0,55.1,98,81,60,29.85,29.68,24,1,24,0.00
2013-7-24,74.6,63.2,49.9,58.3,54.0,48.4,97,74,53,30.02,29.85,10,0,0,0.00
2013-7-25,81.0,65.9,51.5,62.2,56.5,51.0,100,75,47,30.10,30.01,7,0,0,0.00
2013-7-26,75.7,67.1,55.0,63.6,59.8,53.6,99,78,58,30.07,29.90,15,0,15,0.01
2013-7-27,80.0,66.3,54.4,66.6,61.3,51.8,98,85,52,29.90,29.75,19,1,20,0.01
2013-7-28,66.2,57.3,50.3,55.8,51.9,48.6,95,83,63,30.01,29.84,16,0,16,0.02
2013-7-29,74.0,61.8,52.5,61.8,55.7,49.1,94,81,62,30.17,30.00,11,0,0,0.00
2013-7-30,81.1,66.0,50.9,63.4,58.7,50.4,100,79,54,30.22,30.09,12,0,12,0.00
2013-7-31,71.7,67.9,64.8,67.9,65.4,62.1,99,92,83,30.09,29.90,10,0,0,0.07
2013-8-1,83.3,67.9,61.5,67.9,64.0,59.2,100,89,47,29.94,29.89,16,1,16,0.00
2013-8-2,74.4,63.5,54.2,69.9,60.8,52.8,99,91,80,29.97,29.83,17,0,17,0.28
2013-8-3,85.0,71.4,59.8,68.6,62.4,54.3,100,77,44,30.03,29.91,15,1,15,0.01
2013-8-4,81.9,66.2,53.1,61.5,56.1,52.0,98,73,44,30.15,30.03,11,0,14,0.00
2013-8-5,71.3,60.7,50.8,62.4,56.2,49.8,99,86,53,30.10,29.93,6,0,0,0.00
2013-8-6,77.2,69.4,62.3,70.8,65.9,61.2,98,89,80,29.94,29.86,12,0,12,0.12
2013-8-7,80.9,72.3,66.2,74.4,70.1,66.2,100,93,77,29.88,29.80,12,0,12,0.01
2013-8-8,78.9,71.3,65.7,70.1,67.1,63.8,99,87,73,29.97,29.87,8,0,0,0.00
2013-8-9,87.0,72.7,62.7,65.9,63.5,60.4,96,75,47,29.99,29.91,11,0,0,0.00
2013-8-10,86.3,72.5,64.7,70.3,65.1,62.5,95,79,58,30.08,29.99,9,0,0,0.00
2013-8-11,83.6,70.5,56.4,66.5,61.9,55.8,100,77,50,30.09,30.01,13,0,13,0.00
2013-8-12,84.2,72.5,64.1,70.2,65.6,61.4,98,80,58,30.05,29.81,23,0,23,0.20
2013-8-13,75.1,64.3,53.5,65.7,56.6,49.0,100,78,47,30.06,29.83,16,1,16,0.01
2013-8-14,75.2,60.2,45.6,54.6,50.7,44.5,98,74,47,30.18,30.06,12,0,12,0.00
2013-8-15,79.3,62.6,46.5,58.9,52.1,45.8,100,72,39,30.18,30.08,6,0,0,0.00
2013-8-16,72.0,56.2,51.5,59.1,53.9,50.7,99,92,63,30.16,30.11,1,0,0,0.00
2013-8-17,78.5,71.7,55.5,62.4,59.6,55.2,100,67,46,30.24,30.15,11,1,0,0.00
2013-8-18,83.9,68.8,55.5,66.6,59.8,54.3,100,76,46,30.19,30.08,10,0,0,0.00
2013-8-19,87.2,71.6,57.3,65.5,61.7,56.1,99,74,44,30.11,30.01,13,0,13,0.00
2013-8-20,86.8,72.8,60.0,69.9,64.5,59.2,100,77,50,30.12,30.04,10,0,0,0.00
2013-8-21,84.8,74.6,64.1,72.5,68.0,62.6,96,81,59,30.11,29.97,17,0,17,0.00
2013-8-22,81.7,71.7,67.0,73.9,69.2,66.2,100,92,75,30.05,29.94,19,0,19,0.31
2013-8-23,88.2,72.5,59.5,66.6,61.5,53.6,99,72,35,30.15,30.03,11,0,0,0.01
2013-8-24,82.8,68.1,52.9,66.3,57.7,51.6,100,73,42,30.28,30.15,14,1,14,0.00
2013-8-25,88.1,72.6,57.6,67.5,62.6,55.8,95,73,48,30.28,30.15,10,0,0,0.00
2013-8-26,87.9,76.5,66.0,73.7,68.3,61.4,87,76,60,30.18,29.97,11,0,0,0.00
2013-8-27,89.0,79.2,72.0,77.6,73.4,69.6,95,83,67,29.98,29.82,12,0,12,0.01
2013-8-28,90.2,79.8,70.2,77.3,72.6,68.9,97,79,66,29.97,29.78,14,0,14,0.00
2013-8-29,88.0,76.1,64.3,72.6,68.9,64.0,100,81,55,30.04,29.96,10,0,0,0.00
2013-8-30,89.5,77.2,64.3,73.7,69.7,63.3,100,79,55,29.97,29.71,11,0,0,0.00
2013-8-31,88.8,78.0,72.1,73.7,71.6,69.0,97,82,56,29.81,29.71,9,0,0,0.00
2013-9-1,83.3,73.8,68.4,72.8,70.2,67.0,99,89,69,29.77,29.69,7,0,0,0.00
2013-9-2,83.5,71.5,56.4,70.3,63.9,52.3,100,80,49,29.92,29.71,19,2,19,0.00
2013-9-3,81.1,66.1,56.5,59.3,55.1,50.3,90,69,45,30.02,29.91,17,1,17,0.00
2013-9-4,84.5,66.1,50.6,61.2,56.5,49.8,100,75,43,30.10,30.01,15,0,15,0.00
2013-9-5,83.3,66.1,54.6,57.5,50.2,38.3,97,63,23,30.22,30.08,12,0,12,0.00
2013-9-6,80.7,63.8,49.3,55.0,51.5,46.6,95,68,40,30.25,30.05,12,0,12,0.00
2013-9-7,85.5,72.5,60.3,68.1,61.5,51.6,84,69,52,30.06,29.88,11,0,0,0.00
2013-9-8,74.8,69.4,63.0,67.1,64.5,60.0,98,85,72,30.02,29.90,14,1,14,0.00
2013-9-9,89.0,72.9,60.5,73.3,65.1,54.4,93,78,59,30.02,29.85,14,1,14,0.00
2013-9-10,97.0,84.1,72.9,73.5,70.4,66.2,96,67,40,30.00,29.88,16,0,16,0.00
2013-9-11,95.3,80.1,70.1,73.2,70.7,67.0,100,76,45,30.02,29.89,25,1,25,0.40
2013-9-12,86.0,71.4,68.0,70.2,67.3,58.6,100,90,42,29.94,29.85,14,0,14,0.42
2013-9-29,62.6,62.3,61.9,59.9,59.9,59.7,93,92,91,29.95,29.94,0,0,0,0.02